This is the latest recevied weather packets stored in our database for station/object KA0EGE. If no packets are shown the sender has not sent any weather packets the latest 10 day(s).
| Time | Temp. | Humidity | Pressure | Rain* | Wind** | Luminosity | Snow |
|---|---|---|---|---|---|---|---|
| 1777715075 | 13.33° C | 99% | 1012.9 hPa | 0 mm | - | 0 W/m² | - |
| 1777714773 | 13.33° C | 99% | 1012.8 hPa | 1.27 mm | - | 0 W/m² | - |
| 1777714472 | 13.33° C | 99% | 1013 hPa | 4.32 mm | - | 0 W/m² | - |
| 1777714169 | 13.33° C | 99% | 1014.6 hPa | 12.7 mm | - | 0 W/m² | - |
| 1777713867 | 13.33° C | 99% | 1014.8 hPa | 19.81 mm | - | 0 W/m² | - |
| 1777713564 | 13.89° C | 99% | 1014.6 hPa | 13.21 mm | - | 0 W/m² | - |
| 1777713260 | 13.33° C | 99% | 1013.2 hPa | 9.65 mm | - | 0 W/m² | - |
| 1777712957 | 13.33° C | 99% | 1012.3 hPa | 4.83 mm | - | 0 W/m² | - |
| 1777712655 | 13.33° C | 99% | 1011.9 hPa | 0 mm | - | 0 W/m² | - |
| 1777712351 | 13.33° C | 99% | 1012 hPa | 0 mm | - | 0 W/m² | - |
| 1777712047 | 13.33° C | 99% | 1012.3 hPa | 0 mm | - | 0 W/m² | - |
| 1777711744 | 13.33° C | 99% | 1011.9 hPa | 0 mm | - | 0 W/m² | - |
| 1777711441 | 13.33° C | 99% | 1011.7 hPa | 0 mm | - | 0 W/m² | - |
| 1777711136 | 13.33° C | 99% | 1011.5 hPa | 0 mm | - | 0 W/m² | - |
| 1777710833 | 13.33° C | 99% | 1011.6 hPa | 0 mm | - | 0 W/m² | - |
| 1777710530 | 13.33° C | 99% | 1011.4 hPa | 0 mm | - | 0 W/m² | - |
| 1777710228 | 13.33° C | 99% | 1010.9 hPa | 1.27 mm | - | 0 W/m² | - |
| 1777709925 | 13.33° C | 99% | 1011.2 hPa | 3.05 mm | - | 0 W/m² | - |
| 1777709622 | 13.33° C | 99% | 1011 hPa | 4.83 mm | - | 0 W/m² | - |
| 1777709319 | 13.33° C | 99% | 1011.4 hPa | 6.1 mm | - | 0 W/m² | - |
| 1777709016 | 13.33° C | 99% | 1012.8 hPa | 6.1 mm | - | 0 W/m² | - |
| 1777708714 | 13.33° C | 99% | 1013.2 hPa | 7.87 mm | - | 0 W/m² | - |
| 1777708412 | 13.33° C | 99% | 1012.9 hPa | 8.89 mm | - | 0 W/m² | - |
| 1777708109 | 13.33° C | 99% | 1013.2 hPa | 8.89 mm | - | 0 W/m² | - |
| 1777707806 | 13.33° C | 99% | 1012.8 hPa | 7.87 mm | - | 0 W/m² | - |
* Rain latest hour (hover to see other rain measurements)
** Current wind speed in m/s (hover to see current wind gust speed)